X  Cerrar Datos meteorológicos de aviación METAR     EHKD De Kooy Airport
Temperatura
41°F Temperatura
41°F Punto de rocío
100% Humedad



Viento
0 MPH
0 KM/H
0 M/S
0 NUDO



Calma
N
Condiciones actuales

Niebla Niebla
Presión 998.98 (hPa) - 29.5 (inHg)
Visibilidad 3.1 (milla) - 5 (km)
Aeropuerto
Código de aeropuerto EHKD

localidad: De Kooy Airport
Distancia: 34 (mi)

Metar:
EHKD 250755Z AUTO 00000KT 5000 BR SCT015 OVC033 05/05 Q0999 WHT BECMG 8000

Hora: 25-02-2024 08:55 CET